createdAt,value
2019-02-14T00:00:18.884Z,6.90
2019-02-14T00:01:23.082Z,6.37
2019-02-14T00:02:27.329Z,6.60
2019-02-14T00:03:31.550Z,6.28
2019-02-14T00:04:35.718Z,7.30
2019-02-14T00:05:39.997Z,7.47
2019-02-14T00:06:44.163Z,6.78
2019-02-14T00:07:48.440Z,6.40
2019-02-14T00:08:52.671Z,8.10
2019-02-14T00:09:56.807Z,8.20
2019-02-14T00:11:01.105Z,7.15
2019-02-14T00:12:05.355Z,7.08
2019-02-14T00:13:09.967Z,6.95
2019-02-14T00:14:14.291Z,6.70
2019-02-14T00:15:18.683Z,6.70
2019-02-14T00:16:22.939Z,7.25
2019-02-14T00:17:27.129Z,7.25
2019-02-14T00:18:31.277Z,6.97
2019-02-14T00:19:35.433Z,6.78
2019-02-14T00:20:39.760Z,6.40
2019-02-14T00:21:43.875Z,6.15
2019-02-14T00:22:48.196Z,5.95
2019-02-14T00:23:52.353Z,6.90
2019-02-14T00:24:56.502Z,7.20
2019-02-14T00:26:00.785Z,6.40
2019-02-14T00:27:05.037Z,7.05
2019-02-14T00:28:09.187Z,6.72
2019-02-14T00:29:13.357Z,6.95
2019-02-14T00:30:17.621Z,6.33
2019-02-14T00:31:21.979Z,7.10
2019-02-14T00:32:26.336Z,6.80
2019-02-14T00:33:30.534Z,7.10
2019-02-14T00:34:34.673Z,6.80
2019-02-14T00:35:38.994Z,6.65
2019-02-14T00:36:43.184Z,7.33
2019-02-14T00:37:47.384Z,7.28
2019-02-14T00:38:51.543Z,6.75
2019-02-14T00:39:55.768Z,6.45
2019-02-14T00:40:59.945Z,7.20
2019-02-14T00:42:04.234Z,7.33
2019-02-14T00:43:08.455Z,7.53
2019-02-14T00:44:12.735Z,6.70
2019-02-14T00:45:16.988Z,7.90
2019-02-14T00:46:21.192Z,7.00
2019-02-14T00:47:25.487Z,7.00
2019-02-14T00:48:29.651Z,7.45
2019-02-14T00:49:33.837Z,7.15
2019-02-14T00:50:38.021Z,6.80
2019-02-14T00:51:42.216Z,6.72
2019-02-14T00:52:46.506Z,6.30
2019-02-14T00:53:50.803Z,7.30
2019-02-14T00:54:55.058Z,7.15
2019-02-14T00:55:59.320Z,7.22
2019-02-14T00:57:03.612Z,7.50
2019-02-14T00:58:07.773Z,6.92
2019-02-14T00:59:12.083Z,6.60
2019-02-14T01:00:16.421Z,6.97
2019-02-14T01:01:20.659Z,6.33
2019-02-14T01:02:24.954Z,7.28
2019-02-14T01:03:29.272Z,7.12
2019-02-14T01:04:33.405Z,7.67
2019-02-14T01:05:37.587Z,7.40
2019-02-14T01:06:41.761Z,8.08
2019-02-14T01:07:45.930Z,6.55
2019-02-14T01:08:50.109Z,6.72
2019-02-14T01:09:54.398Z,7.17
2019-02-14T01:10:59.077Z,6.67
2019-02-14T01:12:04.923Z,7.55
2019-02-14T01:13:09.117Z,5.92
2019-02-14T01:14:13.369Z,7.00
2019-02-14T01:15:20.143Z,6.50
2019-02-14T01:16:24.324Z,6.30
2019-02-14T01:17:28.519Z,6.30
2019-02-14T01:18:32.665Z,6.83
2019-02-14T01:19:37.081Z,6.80
2019-02-14T01:20:41.251Z,6.50
2019-02-14T01:21:45.535Z,6.87
2019-02-14T01:22:49.944Z,5.75
2019-02-14T01:23:54.177Z,6.90
2019-02-14T01:24:58.427Z,6.75
2019-02-14T01:26:02.723Z,6.72
2019-02-14T01:27:07.052Z,7.55
2019-02-14T01:28:11.235Z,6.80
2019-02-14T01:29:15.414Z,7.83
2019-02-14T01:30:20.090Z,6.72
2019-02-14T01:31:24.424Z,6.80
2019-02-14T01:32:28.621Z,6.50
2019-02-14T01:33:32.869Z,6.33
2019-02-14T01:34:37.076Z,7.20
2019-02-14T01:35:42.180Z,6.20
2019-02-14T01:36:46.486Z,6.90
2019-02-14T01:37:50.683Z,7.12
2019-02-14T01:38:55.131Z,6.67
2019-02-14T01:39:59.265Z,6.72
2019-02-14T01:41:03.489Z,6.20
2019-02-14T01:42:07.783Z,5.80
2019-02-14T01:43:12.116Z,6.70
2019-02-14T01:44:16.657Z,5.87
2019-02-14T01:45:21.260Z,6.55
2019-02-14T01:46:25.487Z,6.72
2019-02-14T01:47:29.653Z,6.72
2019-02-14T01:48:33.857Z,6.65
2019-02-14T01:49:38.114Z,6.45
2019-02-14T01:50:42.304Z,6.42
2019-02-14T01:51:46.548Z,6.87
2019-02-14T01:52:50.779Z,6.25
2019-02-14T01:53:55.087Z,6.20
2019-02-14T01:54:59.303Z,6.92
2019-02-14T01:56:03.481Z,6.53
2019-02-14T01:57:07.783Z,7.03
2019-02-14T01:58:11.987Z,7.87
2019-02-14T01:59:16.243Z,6.53
2019-02-14T02:00:20.517Z,6.85
2019-02-14T02:01:25.039Z,6.92
2019-02-14T02:02:29.295Z,7.20
2019-02-14T02:03:33.615Z,6.80
2019-02-14T02:04:37.742Z,7.05
2019-02-14T02:05:50.425Z,7.17
2019-02-14T02:06:47.950Z,7.03
2019-02-14T02:07:52.255Z,7.25
2019-02-14T02:08:56.453Z,6.87
2019-02-14T02:10:00.624Z,6.65
2019-02-14T02:11:06.103Z,6.72
2019-02-14T02:12:10.247Z,8.18
2019-02-14T02:13:14.474Z,6.28
2019-02-14T02:14:18.665Z,7.30
2019-02-14T02:15:22.962Z,6.53
2019-02-14T02:16:27.261Z,6.55
2019-02-14T02:17:31.545Z,6.75
2019-02-14T02:18:37.018Z,6.55
2019-02-14T02:19:41.237Z,6.53
2019-02-14T02:20:45.505Z,6.17
2019-02-14T02:21:49.685Z,6.40
2019-02-14T02:22:53.944Z,7.33
2019-02-14T02:23:58.245Z,7.05
2019-02-14T02:25:03.223Z,6.45
2019-02-14T02:26:07.438Z,6.85
2019-02-14T02:27:11.652Z,6.60
2019-02-14T02:28:15.985Z,6.65
2019-02-14T02:29:20.126Z,5.58
2019-02-14T02:30:24.378Z,6.67
2019-02-14T02:31:28.579Z,6.70
2019-02-14T02:32:32.867Z,6.12
2019-02-14T02:33:37.155Z,6.70
2019-02-14T02:34:41.288Z,6.72
2019-02-14T02:35:45.560Z,7.87
2019-02-14T02:36:49.862Z,7.20
2019-02-14T02:37:54.052Z,5.42
2019-02-14T02:38:58.391Z,6.20
2019-02-14T02:40:02.682Z,6.58
2019-02-14T02:41:06.915Z,6.47
2019-02-14T02:42:11.214Z,7.80
2019-02-14T02:43:15.487Z,6.30
2019-02-14T02:44:19.970Z,6.47
2019-02-14T02:45:24.137Z,6.35
2019-02-14T02:46:28.346Z,7.10
2019-02-14T02:47:32.690Z,6.53
2019-02-14T02:48:36.993Z,6.37
2019-02-14T02:49:41.347Z,6.42
2019-02-14T02:50:45.669Z,7.15
2019-02-14T02:51:49.927Z,7.50
2019-02-14T02:52:54.208Z,6.15
2019-02-14T02:53:58.363Z,5.75
2019-02-14T02:55:02.559Z,6.12
2019-02-14T02:56:07.093Z,6.75
2019-02-14T02:57:11.386Z,6.97
2019-02-14T02:58:15.629Z,7.22
2019-02-14T02:59:19.935Z,5.85
2019-02-14T03:00:24.225Z,6.65
2019-02-14T03:01:28.560Z,6.50
2019-02-14T03:02:32.727Z,6.30
2019-02-14T03:03:36.866Z,6.20
2019-02-14T03:04:41.153Z,7.33
2019-02-14T03:05:45.404Z,6.20
2019-02-14T03:06:49.775Z,6.95
2019-02-14T03:07:54.009Z,7.58
2019-02-14T03:08:58.308Z,6.60
2019-02-14T03:10:02.500Z,6.62
2019-02-14T03:11:06.644Z,6.78
2019-02-14T03:12:11.061Z,6.80
2019-02-14T03:13:15.339Z,6.58
2019-02-14T03:14:19.606Z,6.72
2019-02-14T03:15:23.887Z,5.78
2019-02-14T03:16:28.175Z,6.08
2019-02-14T03:17:32.414Z,5.90
2019-02-14T03:18:36.624Z,6.30
2019-02-14T03:19:40.837Z,6.87
2019-02-14T03:20:45.020Z,6.62
2019-02-14T03:21:49.347Z,7.08
2019-02-14T03:22:53.645Z,6.30
2019-02-14T03:23:58.289Z,6.60
2019-02-14T03:25:02.455Z,6.40
2019-02-14T03:26:06.729Z,5.62
2019-02-14T03:27:10.973Z,7.58
2019-02-14T03:28:15.151Z,6.90
2019-02-14T03:29:19.443Z,6.10
2019-02-14T03:30:23.606Z,6.30
2019-02-14T03:31:27.880Z,6.05
2019-02-14T03:32:32.050Z,6.80
2019-02-14T03:33:36.284Z,6.67
2019-02-14T03:34:40.453Z,6.40
2019-02-14T03:35:44.623Z,5.92
2019-02-14T03:36:48.775Z,6.80
2019-02-14T03:37:53.092Z,6.62
2019-02-14T03:38:57.529Z,6.85
2019-02-14T03:40:01.782Z,6.47
2019-02-14T03:41:05.903Z,6.03
2019-02-14T03:42:10.055Z,7.33
2019-02-14T03:43:14.257Z,6.12
2019-02-14T03:44:18.453Z,6.97
2019-02-14T03:45:22.583Z,6.47
2019-02-14T03:46:26.874Z,6.45
2019-02-14T03:47:31.163Z,6.20
2019-02-14T03:48:35.456Z,7.22
2019-02-14T03:49:39.600Z,7.42
2019-02-14T03:50:43.865Z,6.95
2019-02-14T03:51:48.172Z,7.33
2019-02-14T03:52:52.294Z,6.90
2019-02-14T03:53:57.373Z,7.70
2019-02-14T03:55:01.767Z,6.55
2019-02-14T03:56:06.065Z,7.75
2019-02-14T03:57:10.268Z,7.85
2019-02-14T03:58:14.417Z,6.95
2019-02-14T03:59:18.531Z,6.58
2019-02-14T04:00:22.745Z,6.83
2019-02-14T04:01:26.993Z,7.20
2019-02-14T04:02:31.277Z,6.47
2019-02-14T04:03:35.437Z,6.25
2019-02-14T04:04:39.714Z,6.25
2019-02-14T04:05:43.891Z,5.92
2019-02-14T04:06:48.196Z,7.15
2019-02-14T04:07:52.391Z,6.65
2019-02-14T04:08:56.877Z,6.92
2019-02-14T04:10:01.047Z,6.42
2019-02-14T04:11:05.211Z,7.15
2019-02-14T04:12:09.412Z,6.90
2019-02-14T04:13:13.713Z,6.65
2019-02-14T04:14:17.903Z,6.80
2019-02-14T04:15:22.188Z,6.65
2019-02-14T04:16:26.343Z,7.78
2019-02-14T04:17:30.665Z,7.60
2019-02-14T04:18:34.881Z,6.50
2019-02-14T04:19:39.183Z,7.40
2019-02-14T04:20:43.360Z,7.15
2019-02-14T04:21:47.533Z,7.15
2019-02-14T04:22:51.701Z,6.97
2019-02-14T04:23:55.843Z,6.92
2019-02-14T04:25:00.003Z,6.65
2019-02-14T04:26:04.593Z,6.90
2019-02-14T04:27:08.841Z,6.92
2019-02-14T04:28:13.046Z,6.45
2019-02-14T04:29:17.202Z,7.25
2019-02-14T04:30:21.364Z,7.03
2019-02-14T04:31:25.660Z,7.45
2019-02-14T04:32:29.820Z,8.38
2019-02-14T04:33:34.055Z,7.90
2019-02-14T04:34:38.363Z,7.70
2019-02-14T04:35:42.807Z,7.47
2019-02-14T04:36:46.991Z,8.03
2019-02-14T04:37:51.187Z,7.35
2019-02-14T04:38:55.320Z,7.97
2019-02-14T04:39:59.528Z,7.00
2019-02-14T04:41:03.795Z,6.75
2019-02-14T04:42:07.951Z,8.00
2019-02-14T04:43:12.105Z,8.35
2019-02-14T04:44:16.303Z,8.48
2019-02-14T04:45:20.527Z,7.22
2019-02-14T04:46:25.256Z,7.85
2019-02-14T04:47:29.519Z,7.65
2019-02-14T04:48:33.774Z,7.78
2019-02-14T04:49:38.077Z,7.62
2019-02-14T04:50:42.369Z,7.62
2019-02-14T04:51:46.625Z,8.20
2019-02-14T04:52:50.912Z,8.78
2019-02-14T04:53:55.060Z,7.67
2019-02-14T04:54:59.243Z,7.83
2019-02-14T04:56:03.491Z,8.35
2019-02-14T04:57:07.673Z,8.73
2019-02-14T04:58:11.862Z,8.03
2019-02-14T04:59:16.169Z,7.37
2019-02-14T05:00:20.437Z,7.15
2019-02-14T05:01:24.747Z,7.20
2019-02-14T05:02:28.992Z,8.20
2019-02-14T05:03:33.157Z,8.38
2019-02-14T05:04:37.317Z,7.83
2019-02-14T05:05:41.421Z,7.28
2019-02-14T05:06:45.737Z,7.90
2019-02-14T05:07:50.025Z,9.15
2019-02-14T05:08:54.192Z,9.08
2019-02-14T05:09:58.561Z,8.35
2019-02-14T05:11:02.819Z,7.72
2019-02-14T05:12:07.144Z,9.48
2019-02-14T05:13:11.343Z,8.40
2019-02-14T05:14:15.535Z,8.85
2019-02-14T05:15:19.872Z,8.83
2019-02-14T05:16:24.133Z,9.20
2019-02-14T05:17:28.473Z,9.05
2019-02-14T05:18:32.617Z,10.00
2019-02-14T05:19:36.875Z,9.30
2019-02-14T05:20:41.252Z,9.55
2019-02-14T05:21:45.377Z,9.63
2019-02-14T05:22:49.589Z,8.15
2019-02-14T05:23:53.762Z,8.83
2019-02-14T05:24:58.091Z,8.80
2019-02-14T05:26:02.293Z,9.30
2019-02-14T05:27:06.491Z,9.73
2019-02-14T05:28:10.635Z,8.20
2019-02-14T05:29:14.907Z,8.73
2019-02-14T05:30:19.114Z,9.03
2019-02-14T05:31:23.331Z,9.15
2019-02-14T05:32:27.642Z,9.28
2019-02-14T05:33:31.911Z,9.68
2019-02-14T05:34:36.018Z,8.63
2019-02-14T05:35:40.316Z,8.40
2019-02-14T05:36:52.524Z,8.08
2019-02-14T05:37:50.330Z,8.83
2019-02-14T05:38:54.575Z,8.23
2019-02-14T05:39:58.810Z,8.30
2019-02-14T05:41:03.031Z,8.30
2019-02-14T05:42:07.649Z,7.40
2019-02-14T05:43:11.856Z,7.72
2019-02-14T05:44:16.117Z,7.92
2019-02-14T05:45:20.379Z,7.67
2019-02-14T05:46:24.693Z,8.25
2019-02-14T05:47:29.031Z,7.85
2019-02-14T05:48:33.165Z,7.45
2019-02-14T05:49:37.452Z,7.75
2019-02-14T05:50:41.733Z,6.80
2019-02-14T05:51:45.896Z,8.43
2019-02-14T05:52:50.155Z,7.65
2019-02-14T05:53:54.369Z,8.00
2019-02-14T05:54:58.612Z,7.67
2019-02-14T05:56:02.881Z,8.03
2019-02-14T05:57:07.070Z,7.90
2019-02-14T05:58:11.223Z,7.58
2019-02-14T05:59:15.408Z,8.38
2019-02-14T06:00:20.181Z,8.43
2019-02-14T06:01:24.691Z,7.00
2019-02-14T06:02:28.871Z,8.28
2019-02-14T06:03:33.019Z,8.38
2019-02-14T06:04:37.155Z,8.73
2019-02-14T06:05:41.701Z,8.75
2019-02-14T06:06:46.020Z,8.73
2019-02-14T06:07:50.613Z,9.08
2019-02-14T06:08:54.848Z,9.30
2019-02-14T06:09:58.965Z,8.28
2019-02-14T06:11:03.255Z,9.08
2019-02-14T06:12:07.407Z,9.33
2019-02-14T06:13:11.749Z,9.08
2019-02-14T06:14:16.056Z,7.87
2019-02-14T06:15:20.208Z,9.20
2019-02-14T06:16:24.383Z,9.55
2019-02-14T06:17:28.722Z,8.95
2019-02-14T06:18:32.917Z,9.53
2019-02-14T06:19:37.160Z,8.88
2019-02-14T06:20:41.830Z,8.90
2019-02-14T06:21:46.023Z,8.73
2019-02-14T06:22:50.241Z,9.43
2019-02-14T06:23:54.392Z,9.15
2019-02-14T06:24:58.646Z,8.70
2019-02-14T06:26:02.950Z,9.30
2019-02-14T06:27:07.271Z,8.73
2019-02-14T06:28:11.557Z,9.10
2019-02-14T06:29:15.725Z,8.45
2019-02-14T06:30:20.055Z,9.33
2019-02-14T06:31:24.243Z,8.75
2019-02-14T06:32:28.405Z,7.92
2019-02-14T06:33:32.736Z,8.70
2019-02-14T06:34:36.919Z,9.25
2019-02-14T06:35:41.245Z,8.60
2019-02-14T06:36:45.515Z,9.83
2019-02-14T06:37:49.823Z,8.70
2019-02-14T06:38:54.129Z,8.78
2019-02-14T06:39:58.429Z,8.38
2019-02-14T06:41:03.680Z,8.50
2019-02-14T06:42:07.969Z,8.08
2019-02-14T06:43:12.209Z,7.78
2019-02-14T06:44:16.482Z,7.75
2019-02-14T06:45:20.807Z,8.15
2019-02-14T06:46:25.080Z,8.83
2019-02-14T06:47:29.417Z,8.35
2019-02-14T06:48:33.695Z,8.93
2019-02-14T06:49:37.879Z,8.90
2019-02-14T06:50:42.116Z,8.30
2019-02-14T06:51:46.353Z,9.73
2019-02-14T06:52:50.549Z,7.65
2019-02-14T06:53:54.819Z,8.20
2019-02-14T06:54:58.995Z,7.55
2019-02-14T06:56:03.286Z,9.08
2019-02-14T06:57:07.487Z,7.85
2019-02-14T06:58:12.862Z,7.58
2019-02-14T06:59:17.230Z,8.15
2019-02-14T07:00:21.493Z,8.18
2019-02-14T07:01:25.717Z,8.28
2019-02-14T07:02:29.899Z,7.08
2019-02-14T07:03:34.184Z,7.60
2019-02-14T07:04:38.423Z,8.40
2019-02-14T07:05:42.606Z,8.00
2019-02-14T07:06:46.847Z,7.70
2019-02-14T07:07:51.229Z,7.65
2019-02-14T07:08:55.549Z,7.78
2019-02-14T07:09:59.733Z,8.03
2019-02-14T07:11:03.897Z,8.13
2019-02-14T07:12:08.163Z,8.93
2019-02-14T07:13:12.413Z,9.78
2019-02-14T07:14:16.714Z,10.80
2019-02-14T07:15:20.903Z,14.80
2019-02-14T07:16:25.192Z,15.83
2019-02-14T07:17:29.342Z,18.07
2019-02-14T07:18:33.546Z,18.73
2019-02-14T07:19:37.864Z,26.70
2019-02-14T07:20:42.039Z,30.27
2019-02-14T07:21:46.269Z,28.98
2019-02-14T07:22:50.807Z,25.45
2019-02-14T07:23:55.056Z,24.02
2019-02-14T07:24:59.317Z,24.27
2019-02-14T07:26:03.509Z,22.65
2019-02-14T07:27:07.780Z,21.10
2019-02-14T07:28:11.909Z,21.45
2019-02-14T07:29:16.223Z,20.15
2019-02-14T07:30:20.873Z,20.60
2019-02-14T07:31:25.229Z,18.95
2019-02-14T07:32:29.478Z,17.80
2019-02-14T07:33:33.685Z,17.73
2019-02-14T07:34:37.963Z,15.85
2019-02-14T07:35:42.295Z,13.50
2019-02-14T07:36:46.507Z,13.25
2019-02-14T07:37:50.666Z,14.98
2019-02-14T07:38:54.942Z,29.23
2019-02-14T07:39:59.193Z,28.95
2019-02-14T07:41:03.472Z,22.55
2019-02-14T07:42:07.810Z,20.80
2019-02-14T07:43:12.060Z,16.17
2019-02-14T07:44:16.237Z,15.78
2019-02-14T07:45:20.485Z,17.42
2019-02-14T07:46:24.722Z,16.40
2019-02-14T07:47:28.943Z,16.60
2019-02-14T07:48:33.197Z,16.57
2019-02-14T07:49:37.379Z,18.00
2019-02-14T07:50:41.769Z,17.85
2019-02-14T07:51:46.044Z,15.65
2019-02-14T07:52:50.383Z,16.07
2019-02-14T07:53:54.595Z,15.03
2019-02-14T07:54:58.980Z,13.30
2019-02-14T07:56:03.227Z,16.05
2019-02-14T07:57:07.409Z,14.80
2019-02-14T07:58:11.664Z,14.10
2019-02-14T07:59:15.894Z,13.50
2019-02-14T08:00:20.185Z,12.68
2019-02-14T08:01:24.431Z,13.43
2019-02-14T08:02:28.659Z,12.78
2019-02-14T08:03:32.972Z,13.22
2019-02-14T08:04:37.159Z,9.40
2019-02-14T08:05:41.427Z,10.00
2019-02-14T08:06:45.719Z,10.38
2019-02-14T08:07:49.978Z,10.28
2019-02-14T08:08:54.331Z,9.05
2019-02-14T08:09:58.492Z,9.05
2019-02-14T08:11:02.629Z,10.10
2019-02-14T08:12:06.943Z,9.70
2019-02-14T08:13:11.104Z,11.40
2019-02-14T08:14:15.301Z,12.23
2019-02-14T08:15:19.641Z,10.70
2019-02-14T08:16:23.953Z,10.90
2019-02-14T08:17:28.248Z,11.53
2019-02-14T08:18:32.842Z,10.43
2019-02-14T08:19:37.036Z,11.28
2019-02-14T08:20:41.201Z,12.60
2019-02-14T08:21:45.521Z,11.40
2019-02-14T08:22:49.682Z,11.70
2019-02-14T08:23:53.863Z,10.70
2019-02-14T08:24:58.035Z,10.38
2019-02-14T08:26:10.361Z,10.23
2019-02-14T08:27:08.139Z,11.40
2019-02-14T08:28:12.308Z,14.98
2019-02-14T08:29:16.485Z,12.80
2019-02-14T08:30:20.819Z,10.20
2019-02-14T08:31:25.046Z,10.45
2019-02-14T08:32:29.322Z,11.88
2019-02-14T08:33:33.535Z,12.70
2019-02-14T08:34:37.845Z,12.47
2019-02-14T08:35:42.149Z,12.70
2019-02-14T08:36:46.686Z,12.45
2019-02-14T08:37:51.030Z,12.13
2019-02-14T08:38:55.320Z,12.55
2019-02-14T08:39:59.623Z,12.95
2019-02-14T08:41:03.879Z,11.90
2019-02-14T08:42:08.077Z,10.85
2019-02-14T08:43:12.238Z,11.70
2019-02-14T08:44:16.439Z,11.95
2019-02-14T08:45:20.617Z,11.70
2019-02-14T08:46:24.845Z,13.35
2019-02-14T08:47:29.133Z,11.55
2019-02-14T08:48:33.433Z,11.38
2019-02-14T08:49:37.689Z,10.80
2019-02-14T08:50:42.028Z,10.95
2019-02-14T08:51:46.247Z,11.30
2019-02-14T08:52:50.464Z,12.35
2019-02-14T08:53:54.593Z,11.95
2019-02-14T08:54:58.820Z,11.10
2019-02-14T08:56:03.003Z,10.75
2019-02-14T08:57:07.283Z,11.18
2019-02-14T08:58:11.609Z,11.97
2019-02-14T08:59:15.891Z,11.55
2019-02-14T09:00:20.429Z,12.30
2019-02-14T09:01:24.762Z,10.65
2019-02-14T09:02:28.906Z,11.60
2019-02-14T09:03:33.170Z,11.88
2019-02-14T09:04:37.476Z,12.45
2019-02-14T09:05:41.781Z,11.75
2019-02-14T09:06:45.949Z,12.20
2019-02-14T09:07:54.750Z,11.90
2019-02-14T09:08:56.229Z,11.68
2019-02-14T09:10:00.457Z,11.95
2019-02-14T09:11:04.657Z,11.12
2019-02-14T09:12:08.895Z,11.45
2019-02-14T09:13:17.287Z,11.80
2019-02-14T09:14:19.051Z,10.28
2019-02-14T09:15:23.283Z,12.28
2019-02-14T09:16:27.492Z,11.15
2019-02-14T09:17:31.819Z,12.30
2019-02-14T09:18:36.101Z,12.78
2019-02-14T09:19:40.409Z,13.40
2019-02-14T09:20:44.629Z,12.95
2019-02-14T09:21:48.759Z,12.13
2019-02-14T09:22:52.901Z,12.30
2019-02-14T09:23:57.586Z,12.18
2019-02-14T09:25:01.861Z,12.40
2019-02-14T09:26:06.068Z,13.22
2019-02-14T09:27:10.284Z,12.23
2019-02-14T09:28:14.458Z,11.97
2019-02-14T09:29:18.790Z,11.20
2019-02-14T09:30:23.125Z,11.80
2019-02-14T09:31:27.467Z,13.78
2019-02-14T09:32:31.894Z,12.20
2019-02-14T09:33:36.165Z,12.63
2019-02-14T09:34:40.335Z,12.85
2019-02-14T09:35:44.648Z,13.38
2019-02-14T09:36:48.915Z,13.32
2019-02-14T09:37:53.225Z,13.20
2019-02-14T09:38:57.565Z,14.30
2019-02-14T09:40:01.802Z,12.53
2019-02-14T09:41:06.093Z,13.53
2019-02-14T09:42:10.391Z,13.50
2019-02-14T09:43:14.673Z,13.10
2019-02-14T09:44:18.995Z,13.30
2019-02-14T09:45:23.294Z,14.50
2019-02-14T09:46:27.691Z,13.10
2019-02-14T09:47:31.970Z,14.43
2019-02-14T09:48:36.215Z,13.95
2019-02-14T09:49:40.399Z,12.85
2019-02-14T09:50:44.736Z,13.25
2019-02-14T09:51:49.361Z,13.53
2019-02-14T09:52:53.501Z,14.47
2019-02-14T09:53:57.691Z,12.40
2019-02-14T09:55:01.921Z,14.47
2019-02-14T09:56:06.195Z,14.43
2019-02-14T09:57:10.529Z,14.45
2019-02-14T09:58:14.860Z,13.00
2019-02-14T09:59:19.098Z,13.08
2019-02-14T10:00:23.366Z,14.50
2019-02-14T10:01:27.549Z,15.40
2019-02-14T10:02:31.825Z,13.88
2019-02-14T10:03:36.186Z,13.48
2019-02-14T10:04:40.947Z,14.65
2019-02-14T10:05:45.183Z,14.80
2019-02-14T10:06:49.486Z,15.78
2019-02-14T10:07:53.791Z,14.93
2019-02-14T10:08:58.092Z,15.00
2019-02-14T10:10:02.283Z,14.20
2019-02-14T10:11:06.626Z,14.73
2019-02-14T10:12:10.808Z,14.05
2019-02-14T10:13:15.141Z,14.68
2019-02-14T10:14:19.441Z,14.55
2019-02-14T10:15:23.741Z,13.43
2019-02-14T10:16:27.953Z,15.05
2019-02-14T10:17:32.135Z,14.60
2019-02-14T10:18:36.391Z,15.90
2019-02-14T10:19:40.631Z,15.80
2019-02-14T10:20:44.837Z,15.88
2019-02-14T10:21:49.085Z,14.03
2019-02-14T10:22:53.399Z,15.53
2019-02-14T10:23:57.720Z,14.43
2019-02-14T10:25:01.912Z,14.90
2019-02-14T10:26:06.488Z,14.95
2019-02-14T10:27:10.710Z,15.13
2019-02-14T10:28:15.064Z,14.73
2019-02-14T10:29:19.381Z,15.05
2019-02-14T10:30:23.650Z,15.00
2019-02-14T10:31:27.955Z,13.32
2019-02-14T10:32:32.193Z,15.05
2019-02-14T10:33:36.406Z,14.90
2019-02-14T10:34:40.589Z,14.35
2019-02-14T10:35:44.880Z,14.87
2019-02-14T10:36:49.083Z,14.68
2019-02-14T10:37:53.623Z,15.70
2019-02-14T10:38:57.761Z,14.50
2019-02-14T10:40:02.053Z,14.63
2019-02-14T10:41:06.382Z,14.15
2019-02-14T10:42:10.561Z,14.38
2019-02-14T10:43:14.881Z,14.30
2019-02-14T10:44:19.065Z,14.35
2019-02-14T10:45:24.273Z,14.50
2019-02-14T10:46:28.643Z,13.28
2019-02-14T10:47:32.964Z,14.43
2019-02-14T10:48:37.167Z,13.68
2019-02-14T10:49:41.441Z,14.70
2019-02-14T10:50:45.750Z,15.43
2019-02-14T10:51:49.901Z,16.23
2019-02-14T10:52:54.213Z,14.38
2019-02-14T10:53:58.490Z,16.42
2019-02-14T10:55:02.763Z,15.30
2019-02-14T10:56:06.994Z,14.78
2019-02-14T10:57:11.170Z,15.43
2019-02-14T10:58:15.692Z,14.63
2019-02-14T10:59:19.839Z,14.80
2019-02-14T11:00:24.389Z,15.65
2019-02-14T11:01:28.737Z,15.10
2019-02-14T11:02:32.952Z,15.28
2019-02-14T11:03:37.261Z,16.45
2019-02-14T11:04:41.506Z,15.98
2019-02-14T11:05:45.860Z,16.17
2019-02-14T11:06:50.091Z,15.63
2019-02-14T11:07:54.219Z,14.87
2019-02-14T11:08:58.487Z,14.90
2019-02-14T11:10:02.760Z,15.03
2019-02-14T11:11:07.302Z,16.25
2019-02-14T11:12:11.556Z,15.48
2019-02-14T11:13:15.841Z,15.32
2019-02-14T11:14:28.694Z,15.75
2019-02-14T11:15:26.371Z,15.50
2019-02-14T11:16:30.589Z,14.78
2019-02-14T11:17:34.778Z,14.93
2019-02-14T11:18:44.262Z,14.75
2019-02-14T11:19:45.053Z,14.35
2019-02-14T11:20:49.272Z,13.68
2019-02-14T11:21:53.537Z,14.05
2019-02-14T11:22:57.771Z,14.35
2019-02-14T11:24:01.930Z,15.48
2019-02-14T11:25:07.296Z,15.13
2019-02-14T11:26:11.551Z,15.23
2019-02-14T11:27:15.753Z,15.78
2019-02-14T11:28:20.077Z,14.10
2019-02-14T11:29:24.236Z,14.65
2019-02-14T11:30:28.521Z,14.83
2019-02-14T11:31:34.594Z,14.28
2019-02-14T11:32:38.765Z,14.60
2019-02-14T11:33:42.965Z,15.00
2019-02-14T11:34:47.180Z,14.78
2019-02-14T11:35:51.442Z,14.87
2019-02-14T11:36:55.709Z,14.33
2019-02-14T11:37:59.879Z,15.05
2019-02-14T11:39:05.922Z,15.13
2019-02-14T11:40:11.230Z,14.78
2019-02-14T11:41:15.606Z,14.50
2019-02-14T11:42:21.780Z,14.18
2019-02-14T11:43:25.671Z,13.70
2019-02-14T11:44:29.987Z,13.72
2019-02-14T11:45:34.389Z,13.03
2019-02-14T11:46:38.739Z,12.90
2019-02-14T11:47:42.921Z,12.28
2019-02-14T11:48:47.967Z,11.85
2019-02-14T11:49:52.455Z,11.18
2019-02-14T11:50:56.624Z,11.60
2019-02-14T11:52:00.915Z,12.53
2019-02-14T11:53:13.900Z,11.57
2019-02-14T11:54:12.711Z,11.40
2019-02-14T11:55:16.949Z,11.25
2019-02-14T11:56:21.572Z,12.33
2019-02-14T11:57:25.837Z,11.90
2019-02-14T11:58:30.054Z,12.18
2019-02-14T11:59:34.221Z,12.23
2019-02-14T12:00:38.528Z,11.68
2019-02-14T12:01:42.770Z,11.65
2019-02-14T12:02:55.058Z,12.20
2019-02-14T12:03:52.912Z,11.45
2019-02-14T12:04:57.055Z,10.35
2019-02-14T12:06:01.245Z,10.08
2019-02-14T12:07:05.602Z,10.35
2019-02-14T12:08:09.872Z,10.30
2019-02-14T12:09:14.465Z,11.45
2019-02-14T12:10:18.753Z,11.25
2019-02-14T12:11:22.946Z,11.50
2019-02-14T12:12:27.976Z,10.78
2019-02-14T12:13:32.423Z,10.35
2019-02-14T12:14:36.676Z,9.03
2019-02-14T12:15:41.009Z,9.05
2019-02-14T12:16:45.225Z,10.00
2019-02-14T12:17:49.389Z,9.78
2019-02-14T12:18:53.525Z,10.38
2019-02-14T12:19:57.985Z,10.38
2019-02-14T12:21:02.514Z,10.05
2019-02-14T12:22:06.693Z,10.10
2019-02-14T12:23:11.009Z,11.83
2019-02-14T12:24:15.359Z,10.85
2019-02-14T12:25:20.033Z,11.88
2019-02-14T12:26:24.197Z,13.32
2019-02-14T12:27:28.347Z,12.47
2019-02-14T12:28:32.876Z,12.28
2019-02-14T12:29:37.199Z,13.85
2019-02-14T12:30:41.490Z,14.45
2019-02-14T12:31:45.766Z,14.30
2019-02-14T12:32:49.929Z,13.15
2019-02-14T12:33:54.103Z,11.53
2019-02-14T12:34:58.245Z,12.03
2019-02-14T12:36:02.549Z,11.35
2019-02-14T12:37:07.099Z,11.88
2019-02-14T12:38:11.272Z,11.20
2019-02-14T12:39:15.568Z,11.05
2019-02-14T12:40:19.809Z,10.90
2019-02-14T12:41:24.169Z,12.07
2019-02-14T12:42:28.413Z,11.60
2019-02-14T12:43:32.599Z,11.05
2019-02-14T12:44:36.859Z,10.20
2019-02-14T12:45:41.143Z,10.60
2019-02-14T12:46:45.492Z,11.20
2019-02-14T12:47:49.625Z,10.45
2019-02-14T12:48:54.202Z,10.75
2019-02-14T12:49:58.389Z,11.43
2019-02-14T12:51:02.617Z,10.93
2019-02-14T12:52:06.921Z,9.58
2019-02-14T12:53:11.223Z,10.93
2019-02-14T12:54:15.578Z,10.25
2019-02-14T12:55:19.869Z,11.40
2019-02-14T12:56:24.041Z,11.40
2019-02-14T12:57:28.371Z,11.63
2019-02-14T12:58:32.635Z,11.63
2019-02-14T12:59:36.882Z,11.03
2019-02-14T13:00:41.144Z,11.15
2019-02-14T13:01:45.295Z,11.25
2019-02-14T13:02:49.609Z,11.03
2019-02-14T13:03:53.875Z,10.50
2019-02-14T13:04:58.097Z,11.33
2019-02-14T13:06:02.351Z,10.10
2019-02-14T13:07:06.738Z,11.00
2019-02-14T13:08:11.079Z,11.00
2019-02-14T13:09:20.103Z,9.90
2019-02-14T13:10:22.045Z,11.20
2019-02-14T13:11:26.213Z,10.48
2019-02-14T13:12:30.541Z,10.88
2019-02-14T13:13:34.836Z,11.12
2019-02-14T13:14:39.063Z,10.13
2019-02-14T13:15:43.363Z,11.73
2019-02-14T13:16:47.519Z,10.98
2019-02-14T13:17:51.763Z,10.85
2019-02-14T13:18:56.101Z,12.35
2019-02-14T13:20:01.205Z,12.60
2019-02-14T13:21:05.491Z,11.35
2019-02-14T13:22:09.763Z,11.57
2019-02-14T13:23:14.023Z,10.55
2019-02-14T13:24:18.209Z,12.70
2019-02-14T13:25:22.373Z,10.50
2019-02-14T13:26:26.561Z,12.20
2019-02-14T13:27:30.790Z,12.98
2019-02-14T13:28:35.449Z,11.55
2019-02-14T13:29:39.770Z,11.78
2019-02-14T13:30:44.348Z,12.55
2019-02-14T13:31:48.647Z,12.35
2019-02-14T13:32:52.953Z,13.05
2019-02-14T13:33:57.609Z,11.93
2019-02-14T13:35:01.836Z,13.85
2019-02-14T13:36:07.608Z,13.43
2019-02-14T13:37:11.800Z,11.38
2019-02-14T13:38:16.056Z,11.48
2019-02-14T13:39:29.064Z,12.98
2019-02-14T13:40:26.341Z,13.88
2019-02-14T13:41:31.343Z,12.80
2019-02-14T13:42:35.819Z,13.05
2019-02-14T13:43:40.449Z,12.18
2019-02-14T13:44:44.681Z,12.73
2019-02-14T13:45:48.875Z,12.23
2019-02-14T13:46:53.163Z,13.20
2019-02-14T13:47:57.365Z,13.03
2019-02-14T13:49:01.615Z,11.90
2019-02-14T13:50:06.495Z,12.93
2019-02-14T13:51:10.814Z,11.33
2019-02-14T13:52:15.396Z,13.43
2019-02-14T13:53:19.663Z,12.75
2019-02-14T13:54:23.944Z,13.65
2019-02-14T13:55:28.428Z,11.88
2019-02-14T13:56:32.801Z,12.93
2019-02-14T13:57:37.243Z,13.45
2019-02-14T13:58:41.537Z,12.55
2019-02-14T13:59:45.762Z,11.40
2019-02-14T14:00:50.108Z,12.35
2019-02-14T14:01:54.382Z,12.00
2019-02-14T14:02:58.697Z,11.60